createdAt,value
2022-07-30T00:02:14.452Z,16.80
2022-07-30T00:05:01.316Z,16.80
2022-07-30T00:10:59.904Z,16.70
2022-07-30T00:13:47.594Z,16.60
2022-07-30T00:16:34.144Z,16.50
2022-07-30T00:19:20.304Z,16.40
2022-07-30T00:22:08.289Z,16.40
2022-07-30T00:24:54.466Z,16.30
2022-07-30T00:27:40.647Z,16.40
2022-07-30T00:30:28.091Z,16.40
2022-07-30T00:33:14.325Z,16.30
2022-07-30T00:36:00.581Z,16.30
2022-07-30T00:38:47.104Z,16.30
2022-07-30T00:41:33.586Z,16.20
2022-07-30T00:44:19.627Z,16.20
2022-07-30T00:47:07.270Z,16.10
2022-07-30T00:49:53.634Z,16.00
2022-07-30T00:52:40.560Z,16.00
2022-07-30T00:55:26.709Z,16.00
2022-07-30T00:58:13.111Z,16.00
2022-07-30T01:00:59.834Z,16.00
2022-07-30T01:03:47.815Z,15.80
2022-07-30T01:06:34.410Z,15.90
2022-07-30T01:09:20.600Z,15.70
2022-07-30T01:12:09.787Z,15.70
2022-07-30T01:14:57.830Z,15.70
2022-07-30T01:17:44.571Z,15.60
2022-07-30T01:20:46.388Z,15.70
2022-07-30T01:23:43.423Z,15.60
2022-07-30T01:26:32.628Z,15.70
2022-07-30T01:29:20.388Z,15.60
2022-07-30T01:32:09.768Z,15.60
2022-07-30T01:34:57.969Z,15.50
2022-07-30T01:37:45.696Z,15.50
2022-07-30T01:40:33.075Z,15.40
2022-07-30T01:43:23.549Z,15.40
2022-07-30T01:46:11.107Z,15.30
2022-07-30T01:48:59.151Z,15.30
2022-07-30T01:51:48.842Z,15.30
2022-07-30T01:54:35.957Z,15.40
2022-07-30T01:57:23.285Z,15.30
2022-07-30T02:00:12.668Z,15.30
2022-07-30T02:02:59.141Z,15.20
2022-07-30T02:05:51.744Z,15.20
2022-07-30T02:08:41.314Z,15.00
2022-07-30T02:11:45.322Z,15.00
2022-07-30T02:14:39.501Z,15.00
2022-07-30T02:17:39.636Z,15.00
2022-07-30T02:20:29.229Z,15.00
2022-07-30T02:23:18.019Z,15.10
2022-07-30T02:26:04.735Z,15.20
2022-07-30T02:28:55.102Z,15.20
2022-07-30T02:31:42.822Z,15.00
2022-07-30T02:34:33.755Z,15.00
2022-07-30T02:37:41.678Z,15.00
2022-07-30T02:40:29.847Z,15.00
2022-07-30T02:43:16.892Z,15.00
2022-07-30T02:46:04.040Z,15.10
2022-07-30T02:48:52.215Z,14.90
2022-07-30T02:51:40.684Z,15.00
2022-07-30T02:54:31.253Z,15.10
2022-07-30T02:57:19.524Z,15.00
2022-07-30T03:00:07.119Z,14.90
2022-07-30T03:02:56.696Z,14.80
2022-07-30T03:05:44.797Z,14.80
2022-07-30T03:08:33.785Z,14.80
2022-07-30T03:11:20.557Z,14.70
2022-07-30T03:14:07.906Z,14.70
2022-07-30T03:16:57.632Z,14.80
2022-07-30T03:19:46.297Z,14.80
2022-07-30T03:22:35.403Z,14.80
2022-07-30T03:25:26.766Z,14.80
2022-07-30T03:28:14.204Z,14.70
2022-07-30T03:31:01.111Z,14.80
2022-07-30T03:33:48.402Z,14.70
2022-07-30T03:36:35.106Z,14.60
2022-07-30T03:39:23.267Z,14.60
2022-07-30T03:42:11.766Z,14.60
2022-07-30T03:44:58.571Z,14.50
2022-07-30T03:47:45.931Z,14.60
2022-07-30T03:50:32.577Z,14.70
2022-07-30T03:53:20.538Z,14.50
2022-07-30T03:56:07.231Z,14.50
2022-07-30T03:58:55.481Z,14.40
2022-07-30T04:01:41.805Z,14.60
2022-07-30T04:04:28.445Z,14.50
2022-07-30T04:07:14.664Z,14.50
2022-07-30T04:10:00.829Z,14.60
2022-07-30T04:12:47.206Z,14.50
2022-07-30T04:16:05.575Z,14.40
2022-07-30T04:18:51.661Z,14.40
2022-07-30T04:21:40.367Z,14.50
2022-07-30T04:24:29.145Z,14.40
2022-07-30T04:27:16.986Z,14.40
2022-07-30T04:30:04.033Z,14.40
2022-07-30T04:32:51.760Z,14.50
2022-07-30T04:35:51.191Z,14.40
2022-07-30T04:38:38.523Z,14.50
2022-07-30T04:41:24.851Z,14.60
2022-07-30T04:44:11.269Z,14.60
2022-07-30T04:46:57.723Z,14.70
2022-07-30T04:49:46.351Z,14.70
2022-07-30T04:52:34.142Z,14.80
2022-07-30T04:55:22.613Z,14.80
2022-07-30T04:58:10.673Z,14.90
2022-07-30T05:00:58.646Z,14.90
2022-07-30T05:03:45.759Z,15.00
2022-07-30T05:06:34.062Z,15.10
2022-07-30T05:09:20.944Z,15.30
2022-07-30T05:12:08.043Z,15.30
2022-07-30T05:14:54.414Z,15.40
2022-07-30T05:17:40.892Z,15.50
2022-07-30T05:20:27.176Z,15.60
2022-07-30T05:23:14.556Z,15.60
2022-07-30T05:26:00.692Z,15.70
2022-07-30T05:28:52.108Z,15.80
2022-07-30T05:31:40.644Z,15.90
2022-07-30T05:34:27.137Z,15.90
2022-07-30T05:37:13.622Z,16.10
2022-07-30T05:40:03.386Z,16.20
2022-07-30T05:42:50.576Z,16.30
2022-07-30T05:45:36.762Z,16.40
2022-07-30T05:48:23.466Z,16.60
2022-07-30T05:51:09.864Z,16.70
2022-07-30T05:53:56.263Z,16.80
2022-07-30T05:56:44.178Z,16.80
2022-07-30T05:59:30.793Z,16.90
2022-07-30T06:02:17.454Z,17.00
2022-07-30T06:05:04.192Z,17.00
2022-07-30T06:07:50.593Z,17.00
2022-07-30T06:10:36.979Z,17.10
2022-07-30T06:13:24.762Z,17.20
2022-07-30T06:16:11.271Z,17.30
2022-07-30T06:18:57.759Z,17.30
2022-07-30T06:22:05.916Z,17.40
2022-07-30T06:24:50.053Z,17.40
2022-07-30T06:27:39.583Z,17.40
2022-07-30T06:30:30.316Z,17.50
2022-07-30T06:33:17.513Z,17.50
2022-07-30T06:36:03.635Z,17.60
2022-07-30T06:38:49.740Z,17.70
2022-07-30T06:41:36.353Z,17.70
2022-07-30T06:44:22.767Z,17.70
2022-07-30T06:47:10.714Z,17.80
2022-07-30T06:49:57.718Z,17.70
2022-07-30T06:52:43.967Z,17.70
2022-07-30T06:55:30.401Z,17.90
2022-07-30T06:58:16.906Z,17.90
2022-07-30T07:01:12.213Z,17.90
2022-07-30T07:04:00.025Z,17.90
2022-07-30T07:06:46.193Z,17.90
2022-07-30T07:09:32.729Z,18.00
2022-07-30T07:12:25.164Z,18.00
2022-07-30T07:15:11.558Z,18.10
2022-07-30T07:17:57.878Z,18.10
2022-07-30T07:20:48.231Z,18.20
2022-07-30T07:23:41.398Z,18.10
2022-07-30T07:26:28.819Z,18.10
2022-07-30T07:29:15.035Z,18.20
2022-07-30T07:32:05.136Z,18.30
2022-07-30T07:34:53.938Z,18.40
2022-07-30T07:37:41.869Z,18.40
2022-07-30T07:40:28.106Z,18.40
2022-07-30T07:43:14.534Z,18.40
2022-07-30T07:46:00.709Z,18.40
2022-07-30T07:48:46.883Z,18.50
2022-07-30T07:51:46.685Z,18.50
2022-07-30T07:54:36.385Z,18.60
2022-07-30T07:57:24.538Z,18.70
2022-07-30T08:00:14.576Z,18.90
2022-07-30T08:03:00.745Z,19.00
2022-07-30T08:06:00.945Z,19.00
2022-07-30T08:08:53.819Z,19.10
2022-07-30T08:11:41.503Z,19.10
2022-07-30T08:14:27.671Z,19.20
2022-07-30T08:17:14.191Z,19.20
2022-07-30T08:20:01.137Z,19.30
2022-07-30T08:22:47.222Z,19.30
2022-07-30T08:25:33.634Z,19.40
2022-07-30T08:28:35.714Z,19.60
2022-07-30T08:31:22.753Z,19.60
2022-07-30T08:34:09.310Z,19.70
2022-07-30T08:36:55.466Z,19.70
2022-07-30T08:39:41.835Z,19.70
2022-07-30T08:42:28.707Z,19.80
2022-07-30T08:45:18.502Z,20.10
2022-07-30T08:48:13.601Z,20.30
2022-07-30T08:51:02.023Z,20.60
2022-07-30T08:53:48.611Z,20.70
2022-07-30T08:56:35.549Z,21.00
2022-07-30T08:59:24.483Z,21.00
2022-07-30T09:02:33.270Z,21.10
2022-07-30T09:05:19.562Z,21.20
2022-07-30T09:08:08.798Z,21.10
2022-07-30T09:10:55.454Z,21.20
2022-07-30T09:13:44.418Z,21.30
2022-07-30T09:16:30.503Z,21.60
2022-07-30T09:19:19.922Z,21.80
2022-07-30T09:22:06.739Z,21.80
2022-07-30T09:24:52.850Z,21.90
2022-07-30T09:27:47.057Z,21.80
2022-07-30T09:30:45.802Z,22.20
2022-07-30T09:33:35.233Z,22.30
2022-07-30T09:36:23.843Z,22.40
2022-07-30T09:39:10.242Z,22.60
2022-07-30T09:41:56.972Z,22.70
2022-07-30T09:44:43.764Z,22.90
2022-07-30T09:47:33.821Z,23.00
2022-07-30T09:50:30.144Z,23.10
2022-07-30T09:53:22.305Z,23.20
2022-07-30T09:56:27.126Z,22.80
2022-07-30T09:59:35.247Z,23.00
2022-07-30T10:02:22.322Z,23.20
2022-07-30T10:05:19.112Z,23.20
2022-07-30T10:08:09.315Z,23.40
2022-07-30T10:11:05.006Z,23.50
2022-07-30T10:13:57.313Z,23.60
2022-07-30T10:16:44.721Z,23.80
2022-07-30T10:19:40.469Z,24.10
2022-07-30T10:22:28.883Z,24.20
2022-07-30T10:25:18.971Z,24.40
2022-07-30T10:28:09.358Z,24.50
2022-07-30T10:30:57.672Z,24.40
2022-07-30T10:33:46.801Z,24.30
2022-07-30T10:36:35.507Z,24.60
2022-07-30T10:39:26.425Z,24.90
2022-07-30T10:42:26.194Z,24.90
2022-07-30T10:45:24.712Z,24.90
2022-07-30T10:48:11.441Z,25.00
2022-07-30T10:50:59.776Z,25.20
2022-07-30T10:53:48.503Z,25.40
2022-07-30T10:56:34.780Z,25.50
2022-07-30T10:59:20.840Z,25.60
2022-07-30T11:02:11.670Z,25.70
2022-07-30T11:05:43.799Z,25.70
2022-07-30T11:08:36.190Z,25.60
2022-07-30T11:12:01.098Z,25.80
2022-07-30T11:15:06.591Z,25.30
2022-07-30T11:18:12.187Z,25.00
2022-07-30T11:21:16.594Z,25.50
2022-07-30T11:24:03.405Z,25.60
2022-07-30T11:26:52.970Z,25.90
2022-07-30T11:29:51.240Z,26.10
2022-07-30T11:32:37.929Z,25.90
2022-07-30T11:35:34.862Z,26.00
2022-07-30T11:38:22.353Z,26.10
2022-07-30T11:41:12.196Z,26.10
2022-07-30T11:44:29.839Z,26.60
2022-07-30T11:47:16.557Z,26.80
2022-07-30T11:50:03.611Z,26.90
2022-07-30T11:52:52.265Z,27.00
2022-07-30T11:55:40.000Z,26.90
2022-07-30T11:58:32.105Z,26.90
2022-07-30T12:01:18.365Z,26.90
2022-07-30T12:04:05.781Z,26.80
2022-07-30T12:06:52.329Z,26.90
2022-07-30T12:09:39.780Z,27.10
2022-07-30T12:12:29.805Z,27.00
2022-07-30T12:15:32.002Z,27.60
2022-07-30T12:18:26.881Z,27.80
2022-07-30T12:21:15.897Z,27.90
2022-07-30T12:24:07.278Z,27.90
2022-07-30T12:27:06.104Z,27.70
2022-07-30T12:29:52.894Z,27.40
2022-07-30T12:32:39.489Z,27.20
2022-07-30T12:35:43.062Z,26.80
2022-07-30T12:38:30.315Z,26.80
2022-07-30T12:41:16.804Z,27.30
2022-07-30T12:44:04.142Z,27.50
2022-07-30T12:46:50.271Z,27.70
2022-07-30T12:49:48.820Z,27.90
2022-07-30T12:52:37.638Z,28.10
2022-07-30T12:55:32.082Z,27.60
2022-07-30T12:58:18.437Z,27.50
2022-07-30T13:01:06.256Z,28.10
2022-07-30T13:04:05.700Z,28.20
2022-07-30T13:07:05.981Z,28.20
2022-07-30T13:10:07.445Z,28.20
2022-07-30T13:12:53.838Z,28.10
2022-07-30T13:15:41.384Z,28.20
2022-07-30T13:18:42.138Z,28.60
2022-07-30T13:21:28.394Z,28.90
2022-07-30T13:24:17.808Z,29.20
2022-07-30T13:27:04.567Z,29.30
2022-07-30T13:29:51.140Z,28.90
2022-07-30T13:32:37.580Z,29.00
2022-07-30T13:35:25.224Z,28.80
2022-07-30T13:38:13.463Z,28.90
2022-07-30T13:41:02.721Z,28.90
2022-07-30T13:43:49.608Z,28.60
2022-07-30T13:46:35.989Z,28.30
2022-07-30T13:49:21.951Z,28.50
2022-07-30T13:52:09.879Z,28.50
2022-07-30T13:54:56.417Z,28.60
2022-07-30T13:57:44.211Z,28.90
2022-07-30T14:00:33.686Z,28.90
2022-07-30T14:03:20.142Z,29.00
2022-07-30T14:06:11.153Z,29.40
2022-07-30T14:08:59.302Z,29.30
2022-07-30T14:11:45.679Z,29.50
2022-07-30T14:14:32.174Z,29.30
2022-07-30T14:17:18.658Z,29.60
2022-07-30T14:20:06.327Z,29.80
2022-07-30T14:22:52.561Z,29.80
2022-07-30T14:25:41.963Z,29.90
2022-07-30T14:28:28.259Z,30.40
2022-07-30T14:31:14.339Z,30.70
2022-07-30T14:34:00.520Z,30.20
2022-07-30T14:36:46.658Z,31.00
2022-07-30T14:39:32.905Z,30.90
2022-07-30T14:42:21.451Z,30.70
2022-07-30T14:45:09.291Z,30.70
2022-07-30T14:47:56.250Z,30.70
2022-07-30T14:51:11.643Z,31.60
2022-07-30T14:53:50.157Z,32.30
2022-07-30T14:56:36.471Z,33.40
2022-07-30T14:59:24.305Z,33.20
2022-07-30T15:02:11.728Z,32.50
2022-07-30T15:04:58.261Z,31.30
2022-07-30T15:07:44.577Z,32.00
2022-07-30T15:10:30.707Z,33.10
2022-07-30T15:13:16.966Z,33.50
2022-07-30T15:16:06.386Z,34.10
2022-07-30T15:18:52.567Z,34.70
2022-07-30T15:21:38.857Z,34.60
2022-07-30T15:24:26.263Z,35.30
2022-07-30T15:27:14.026Z,34.70
2022-07-30T15:30:00.037Z,35.00
2022-07-30T15:32:47.736Z,35.70
2022-07-30T15:35:33.970Z,34.80
2022-07-30T15:38:20.482Z,35.00
2022-07-30T15:41:10.366Z,35.20
2022-07-30T15:43:59.512Z,34.20
2022-07-30T15:46:45.824Z,34.20
2022-07-30T15:49:33.472Z,32.90
2022-07-30T15:52:19.683Z,31.00
2022-07-30T15:55:07.068Z,30.50
2022-07-30T15:57:53.312Z,29.90
2022-07-30T16:00:39.756Z,29.90
2022-07-30T16:03:27.312Z,29.90
2022-07-30T16:06:15.368Z,30.00
2022-07-30T16:09:01.955Z,30.20
2022-07-30T16:11:49.674Z,30.10
2022-07-30T16:14:36.294Z,29.70
2022-07-30T16:17:22.772Z,29.60
2022-07-30T16:20:10.602Z,29.30
2022-07-30T16:22:58.292Z,29.10
2022-07-30T16:25:44.453Z,28.70
2022-07-30T16:28:30.690Z,28.60
2022-07-30T16:31:17.464Z,28.30
2022-07-30T16:34:04.018Z,28.10
2022-07-30T16:36:50.358Z,27.90
2022-07-30T16:39:38.156Z,28.50
2022-07-30T16:42:26.838Z,28.70
2022-07-30T16:45:13.291Z,28.60
2022-07-30T16:47:59.416Z,28.50
2022-07-30T16:50:46.171Z,28.40
2022-07-30T16:53:32.651Z,27.90
2022-07-30T16:56:20.290Z,27.80
2022-07-30T16:59:10.585Z,27.60
2022-07-30T17:01:59.691Z,27.30
2022-07-30T17:04:47.622Z,27.30
2022-07-30T17:07:33.734Z,27.00
2022-07-30T17:10:25.773Z,27.00
2022-07-30T17:13:14.018Z,27.10
2022-07-30T17:16:00.290Z,26.80
2022-07-30T17:18:46.696Z,26.50
2022-07-30T17:21:32.776Z,26.40
2022-07-30T17:24:19.352Z,26.30
2022-07-30T17:27:05.618Z,26.10
2022-07-30T17:29:53.406Z,26.00
2022-07-30T17:32:39.723Z,26.00
2022-07-30T17:35:26.237Z,26.30
2022-07-30T17:38:12.544Z,26.20
2022-07-30T17:40:58.768Z,26.30
2022-07-30T17:43:45.133Z,26.20
2022-07-30T17:46:34.041Z,26.10
2022-07-30T17:49:20.382Z,26.00
2022-07-30T17:52:07.226Z,25.90
2022-07-30T17:54:54.026Z,26.10
2022-07-30T17:57:40.463Z,25.90
2022-07-30T18:00:26.785Z,25.90
2022-07-30T18:03:14.597Z,25.90
2022-07-30T18:06:01.115Z,25.80
2022-07-30T18:08:48.570Z,25.80
2022-07-30T18:11:35.103Z,25.80
2022-07-30T18:14:23.872Z,25.70
2022-07-30T18:17:14.083Z,25.70
2022-07-30T18:20:02.295Z,25.60
2022-07-30T18:22:51.627Z,25.50
2022-07-30T18:25:51.830Z,25.50
2022-07-30T18:28:39.840Z,25.50
2022-07-30T18:31:25.763Z,25.40
2022-07-30T18:34:12.105Z,25.30
2022-07-30T18:36:59.835Z,25.20
2022-07-30T18:39:46.217Z,25.20
2022-07-30T18:42:32.357Z,25.30
2022-07-30T18:45:19.051Z,25.20
2022-07-30T18:48:05.881Z,25.10
2022-07-30T18:50:52.853Z,25.10
2022-07-30T18:53:40.449Z,24.80
2022-07-30T18:56:26.487Z,24.70
2022-07-30T18:59:12.675Z,24.50
2022-07-30T19:01:58.962Z,24.20
2022-07-30T19:04:45.906Z,24.20
2022-07-30T19:07:57.870Z,24.10
2022-07-30T19:10:40.085Z,24.00
2022-07-30T19:13:26.464Z,23.90
2022-07-30T19:16:12.901Z,23.70
2022-07-30T19:18:59.364Z,23.60
2022-07-30T19:21:45.830Z,23.40
2022-07-30T19:24:32.002Z,23.40
2022-07-30T19:27:19.942Z,23.30
2022-07-30T19:30:07.466Z,23.30
2022-07-30T19:32:53.368Z,23.20
2022-07-30T19:35:39.800Z,23.20
2022-07-30T19:38:26.353Z,23.00
2022-07-30T19:41:14.129Z,23.10
2022-07-30T19:44:01.923Z,23.10
2022-07-30T19:46:51.561Z,23.00
2022-07-30T19:49:40.481Z,23.00
2022-07-30T19:52:27.053Z,23.00
2022-07-30T19:55:17.142Z,22.90
2022-07-30T19:58:19.581Z,22.90
2022-07-30T20:01:08.474Z,22.80
2022-07-30T20:03:55.502Z,22.90
2022-07-30T20:06:48.974Z,22.80
2022-07-30T20:09:35.382Z,22.80
2022-07-30T20:12:21.867Z,22.90
2022-07-30T20:15:13.972Z,22.80
2022-07-30T20:18:03.261Z,22.70
2022-07-30T20:20:49.596Z,22.70
2022-07-30T20:23:37.230Z,22.60
2022-07-30T20:26:29.237Z,22.50
2022-07-30T20:29:19.033Z,22.50
2022-07-30T20:32:06.788Z,22.50
2022-07-30T20:34:55.449Z,22.40
2022-07-30T20:37:55.664Z,22.40
2022-07-30T20:40:46.488Z,22.30
2022-07-30T20:43:33.049Z,22.40
2022-07-30T20:46:34.920Z,22.30
2022-07-30T20:49:34.132Z,22.20
2022-07-30T20:52:23.565Z,22.20
2022-07-30T20:55:10.144Z,22.30
2022-07-30T20:58:13.836Z,22.30
2022-07-30T21:01:04.906Z,22.20
2022-07-30T21:03:51.085Z,22.20
2022-07-30T21:06:44.118Z,22.10
2022-07-30T21:09:52.039Z,22.00
2022-07-30T21:12:38.796Z,22.10
2022-07-30T21:15:26.426Z,22.10
2022-07-30T21:18:12.649Z,22.00
2022-07-30T21:20:59.108Z,22.00
2022-07-30T21:23:46.882Z,22.10
2022-07-30T21:26:36.418Z,21.90
2022-07-30T21:29:25.930Z,22.00
2022-07-30T21:32:13.835Z,21.80
2022-07-30T21:35:08.356Z,21.80
2022-07-30T21:37:55.086Z,21.80
2022-07-30T21:40:42.221Z,21.80
2022-07-30T21:43:30.599Z,21.70
2022-07-30T21:46:26.801Z,21.70
2022-07-30T21:49:14.401Z,21.70
2022-07-30T21:52:01.274Z,21.80
2022-07-30T21:54:49.725Z,21.80
2022-07-30T21:57:36.849Z,22.10
2022-07-30T22:00:44.577Z,22.10
2022-07-30T22:04:04.445Z,22.10
2022-07-30T22:06:40.399Z,22.30
2022-07-30T22:09:34.101Z,22.30
2022-07-30T22:12:20.662Z,22.40
2022-07-30T22:15:08.677Z,22.30
2022-07-30T22:17:58.413Z,22.20
2022-07-30T22:20:46.770Z,22.10
2022-07-30T22:23:32.975Z,21.90
2022-07-30T22:26:19.199Z,22.00
2022-07-30T22:29:07.055Z,22.00
2022-07-30T22:31:55.711Z,22.00
2022-07-30T22:34:43.161Z,22.00
2022-07-30T22:37:34.075Z,21.90
2022-07-30T22:40:20.719Z,22.10
2022-07-30T22:43:13.033Z,22.10
2022-07-30T22:46:02.144Z,22.00
2022-07-30T22:48:48.643Z,22.00
2022-07-30T22:51:58.566Z,22.10
2022-07-30T22:54:43.244Z,22.30
2022-07-30T22:57:29.669Z,22.10
2022-07-30T23:00:27.274Z,22.10
2022-07-30T23:03:14.450Z,21.90
2022-07-30T23:06:03.220Z,22.00
2022-07-30T23:08:51.298Z,21.90
2022-07-30T23:11:39.730Z,21.80
2022-07-30T23:14:26.789Z,21.70
2022-07-30T23:17:13.539Z,21.80
2022-07-30T23:19:59.997Z,21.90
2022-07-30T23:22:46.432Z,21.90
2022-07-30T23:25:38.621Z,21.70
2022-07-30T23:28:25.477Z,21.60
2022-07-30T23:31:11.764Z,21.70
2022-07-30T23:33:57.798Z,21.60
2022-07-30T23:36:44.019Z,21.70
2022-07-30T23:39:30.388Z,21.70
2022-07-30T23:42:18.772Z,21.70
2022-07-30T23:45:06.119Z,21.60
2022-07-30T23:48:02.673Z,21.70
2022-07-30T23:50:49.903Z,21.60
2022-07-30T23:53:36.224Z,21.50
2022-07-30T23:56:22.758Z,21.30
2022-07-30T23:59:12.404Z,21.30
